Aérodrome :
LOGIN :

S'inscrire | Disclaimer

   EN    FR    IT 

 










Légende :    VFR   VFR Marginal   IFR   IFR Intensif   IFR Très Intensif
Visi : 
Plafond : 
>= 8 km
>= 3000ft
5 à 8 km
1000 à 3000 ft
1500m à 5 km
500 à 1000 ft
800 à 1500m
200 à 500 ft
< 800m
< 200 ft
Symboles :   Orages  Brouillard  Fortes neiges  Fortes précipitations  Vent > 20 kt
SIGMETs :   Divers  Orages  Givrage  Turbulence  Onde Orograph.  Cendres Volcan.







- Altitude de l'aérodrome : 1084 ft
- Code IATA : EPL
- Voir les cartes d'approche


LFSG - Épinal-Mirecourt

DERNIER METAR :
  • 011730Z AUTO 19021KT 9999 -RA BKN010 BKN017 BKN030 06/04 Q1005

METARs EXPIRÉS :
  • 011700Z AUTO 20021KT 8000 -RA BKN014 BKN020 BKN034 05/04 Q1006
  • 011630Z AUTO 20019KT 9999 -RA BKN014 BKN020 OVC027 05/03 Q1006
  • 011600Z AUTO 20020KT 9999 -RA BKN014/// OVC037/// ///TCU 05/03 Q1006
  • 011530Z AUTO 20021KT 9999 RA BKN015/// OVC036/// ///TCU 05/03 Q1007
  • 011500Z AUTO 20020G31KT 9999 -RA BKN016 BKN022 OVC029 06/04 Q1007

TAF N/A
Pas de NOTAMs connus pour ce terrain.
1 SIGMET publié pour la FIR Reims (LFEE) :
 
Turbulence forte
LFEE SIGMET 4 VALID 011800/012200 LFPW
LFEE REIMS FIR/UIR SEV TURB FCST E OF LINE N4630 E00445 - N4915 E00645 SFC/FL060 STNR INTSF=



MET'MAP, la Météo Aéronautique d'un coup d'oeil ! - Copyright ORBIFLY Décembre 2007 - Disclaimer

ORBIFLY MET'MAP TEAM :

Programmation & Développement : Alexandra Zaïnal
Conception & Développement : Baudouin d'Aumeries
Co-Programmation & Développement : Marc-Olivier Méhu
Soutien technique & logistique : Manuel Goepfert

Contact : metmap@orbifly.com




SOURCES & CREDITS :

   NOAA